createdAt,value
2019-01-04T00:00:05.503Z,1032.62
2019-01-04T00:01:57.934Z,1032.57
2019-01-04T00:02:57.909Z,1032.61
2019-01-04T00:04:49.830Z,1032.63
2019-01-04T00:05:49.824Z,1032.61
2019-01-04T00:07:41.745Z,1032.66
2019-01-04T00:08:41.737Z,1032.61
2019-01-04T00:10:33.641Z,1032.55
2019-01-04T00:11:33.645Z,1032.60
2019-01-04T00:13:25.566Z,1032.58
2019-01-04T00:14:25.554Z,1032.60
2019-01-04T00:16:17.458Z,1032.59
2019-01-04T00:17:17.473Z,1032.59
2019-01-04T00:19:09.388Z,1032.65
2019-01-04T00:20:09.371Z,1032.66
2019-01-04T00:22:01.280Z,1032.66
2019-01-04T00:23:01.282Z,1032.69
2019-01-04T00:24:53.212Z,1032.71
2019-01-04T00:25:53.191Z,1032.64
2019-01-04T00:27:45.130Z,1032.64
2019-01-04T00:28:45.105Z,1032.63
2019-01-04T00:30:37.007Z,1032.68
2019-01-04T00:31:37.016Z,1032.64
2019-01-04T00:33:29.442Z,1032.66
2019-01-04T00:34:29.428Z,1032.66
2019-01-04T00:36:21.341Z,1032.65
2019-01-04T00:37:21.345Z,1032.61
2019-01-04T00:39:13.279Z,1032.63
2019-01-04T00:40:13.261Z,1032.63
2019-01-04T00:42:05.173Z,1032.67
2019-01-04T00:43:05.172Z,1032.68
2019-01-04T00:44:57.105Z,1032.72
2019-01-04T00:45:57.082Z,1032.65
2019-01-04T00:47:48.980Z,1032.64
2019-01-04T00:48:48.990Z,1032.68
2019-01-04T00:50:40.918Z,1032.70
2019-01-04T00:51:40.896Z,1032.68
2019-01-04T00:53:32.837Z,1032.70
2019-01-04T00:54:32.823Z,1032.73
2019-01-04T00:56:24.722Z,1032.69
2019-01-04T00:57:24.727Z,1032.70
2019-01-04T00:59:16.657Z,1032.68
2019-01-04T01:00:16.645Z,1032.67
2019-01-04T01:02:08.558Z,1032.58
2019-01-04T01:03:08.549Z,1032.61
2019-01-04T01:05:00.974Z,1032.61
2019-01-04T01:06:00.960Z,1032.63
2019-01-04T01:07:52.869Z,1032.67
2019-01-04T01:08:52.876Z,1032.64
2019-01-04T01:10:44.796Z,1032.59
2019-01-04T01:11:44.782Z,1032.60
2019-01-04T01:13:36.685Z,1032.61
2019-01-04T01:14:36.692Z,1032.62
2019-01-04T01:16:28.631Z,1032.64
2019-01-04T01:17:28.625Z,1032.62
2019-01-04T01:19:20.525Z,1032.60
2019-01-04T01:20:20.532Z,1032.62
2019-01-04T01:22:12.455Z,1032.63
2019-01-04T01:23:12.438Z,1032.72
2019-01-04T01:25:04.408Z,1032.75
2019-01-04T01:26:04.394Z,1032.81
2019-01-04T01:27:56.316Z,1032.81
2019-01-04T01:28:56.303Z,1032.80
2019-01-04T01:30:48.225Z,1032.84
2019-01-04T01:31:48.216Z,1032.84
2019-01-04T01:33:40.119Z,1032.85
2019-01-04T01:34:40.120Z,1032.85
2019-01-04T01:36:32.567Z,1032.88
2019-01-04T01:37:32.527Z,1032.91
2019-01-04T01:39:24.465Z,1032.81
2019-01-04T01:40:24.476Z,1032.82
2019-01-04T01:42:16.386Z,1032.66
2019-01-04T01:43:16.368Z,1032.71
2019-01-04T01:45:08.281Z,1032.76
2019-01-04T01:46:08.289Z,1032.80
2019-01-04T01:48:00.216Z,1032.84
2019-01-04T01:49:00.196Z,1032.84
2019-01-04T01:50:52.593Z,1032.92
2019-01-04T01:51:52.600Z,1032.93
2019-01-04T01:53:44.524Z,1032.97
2019-01-04T01:54:44.506Z,1033.00
2019-01-04T01:56:36.484Z,1033.04
2019-01-04T01:57:36.453Z,1033.03
2019-01-04T01:59:28.835Z,1032.96
2019-01-04T02:00:28.835Z,1032.96
2019-01-04T02:02:20.763Z,1032.99
2019-01-04T02:03:20.748Z,1032.98
2019-01-04T02:05:12.691Z,1032.90
2019-01-04T02:06:12.665Z,1032.88
2019-01-04T02:08:04.597Z,1032.88
2019-01-04T02:09:07.538Z,1032.91
2019-01-04T02:10:56.489Z,1032.89
2019-01-04T02:11:56.493Z,1032.90
2019-01-04T02:13:48.412Z,1032.92
2019-01-04T02:14:48.398Z,1032.98
2019-01-04T02:16:40.304Z,1033.02
2019-01-04T02:17:40.308Z,1033.03
2019-01-04T02:19:32.723Z,1033.05
2019-01-04T02:20:32.706Z,1033.04
2019-01-04T02:22:24.621Z,1033.09
2019-01-04T02:23:24.622Z,1033.03
2019-01-04T02:25:16.548Z,1033.01
2019-01-04T02:26:16.531Z,1032.96
2019-01-04T02:28:08.466Z,1032.96
2019-01-04T02:29:08.446Z,1033.00
2019-01-04T02:31:00.356Z,1032.93
2019-01-04T02:32:00.440Z,1033.00
2019-01-04T02:33:52.281Z,1032.99
2019-01-04T02:34:52.270Z,1033.01
2019-01-04T02:36:44.184Z,1032.96
2019-01-04T02:37:44.193Z,1032.83
2019-01-04T02:39:36.115Z,1032.84
2019-01-04T02:40:36.097Z,1032.86
2019-01-04T02:42:28.006Z,1032.90
2019-01-04T02:43:28.010Z,1032.86
2019-01-04T02:45:19.942Z,1032.89
2019-01-04T02:46:19.918Z,1032.79
2019-01-04T02:47:19.933Z,1032.80
2019-01-04T02:48:19.945Z,1032.76
2019-01-04T02:49:19.965Z,1032.76
2019-01-04T02:50:19.966Z,1032.74
2019-01-04T02:51:19.975Z,1032.69
2019-01-04T02:52:19.990Z,1032.66
2019-01-04T02:53:20.001Z,1032.70
2019-01-04T02:54:20.016Z,1032.72
2019-01-04T02:55:20.024Z,1032.70
2019-01-04T02:56:20.037Z,1032.67
2019-01-04T02:57:20.051Z,1032.72
2019-01-04T02:58:20.063Z,1032.74
2019-01-04T02:59:20.075Z,1032.79
2019-01-04T03:00:20.087Z,1032.81
2019-01-04T03:01:20.104Z,1032.85
2019-01-04T03:02:20.106Z,1032.84
2019-01-04T03:03:20.124Z,1032.84
2019-01-04T03:04:20.136Z,1032.81
2019-01-04T03:05:20.145Z,1032.84
2019-01-04T03:06:20.157Z,1032.81
2019-01-04T03:07:20.170Z,1032.83
2019-01-04T03:08:20.193Z,1032.81
2019-01-04T03:38:09.978Z,1032.63
2019-01-04T03:39:09.966Z,1032.58
2019-01-04T03:41:01.906Z,1032.59
2019-01-04T03:42:01.853Z,1032.55
2019-01-04T03:43:53.768Z,1032.57
2019-01-04T03:44:53.750Z,1032.49
2019-01-04T03:46:45.672Z,1032.60
2019-01-04T03:47:45.658Z,1032.56
2019-01-04T03:49:37.559Z,1032.60
2019-01-04T03:50:37.561Z,1032.59
2019-01-04T03:52:29.481Z,1032.56
2019-01-04T03:53:29.471Z,1032.54
2019-01-04T03:55:21.424Z,1032.49
2019-01-04T03:56:21.432Z,1032.48
2019-01-04T03:58:13.367Z,1032.43
2019-01-04T03:59:13.350Z,1032.45
2019-01-04T04:01:05.250Z,1032.40
2019-01-04T04:02:05.243Z,1032.38
2019-01-04T04:03:57.674Z,1032.48
2019-01-04T04:04:57.650Z,1032.45
2019-01-04T04:06:49.573Z,1032.39
2019-01-04T04:07:49.556Z,1032.42
2019-01-04T04:09:41.956Z,1032.46
2019-01-04T04:10:41.961Z,1032.44
2019-01-04T04:12:33.909Z,1032.37
2019-01-04T04:13:33.897Z,1032.37
2019-01-04T04:15:25.795Z,1032.34
2019-01-04T04:16:25.798Z,1032.44
2019-01-04T04:18:17.721Z,1032.43
2019-01-04T04:19:17.710Z,1032.45
2019-01-04T04:21:09.620Z,1032.48
2019-01-04T04:22:09.617Z,1032.49
2019-01-04T04:24:01.595Z,1032.43
2019-01-04T04:25:01.558Z,1032.37
2019-01-04T04:26:53.454Z,1032.28
2019-01-04T04:27:53.468Z,1032.26
2019-01-04T04:29:45.381Z,1032.27
2019-01-04T04:30:45.371Z,1032.28
2019-01-04T04:32:37.301Z,1032.22
2019-01-04T04:33:37.280Z,1032.13
2019-01-04T04:35:29.203Z,1032.15
2019-01-04T04:36:29.193Z,1032.12
2019-01-04T04:38:21.147Z,1032.20
2019-01-04T04:39:21.147Z,1032.24
2019-01-04T04:41:13.032Z,1032.28
2019-01-04T04:42:13.046Z,1032.29
2019-01-04T04:44:04.977Z,1032.31
2019-01-04T04:45:04.957Z,1032.27
2019-01-04T04:46:56.862Z,1032.25
2019-01-04T04:47:56.862Z,1032.25
2019-01-04T04:49:49.283Z,1032.28
2019-01-04T04:50:49.268Z,1032.25
2019-01-04T04:52:41.171Z,1032.31
2019-01-04T04:53:41.176Z,1032.29
2019-01-04T04:55:33.106Z,1032.31
2019-01-04T04:56:33.090Z,1032.32
2019-01-04T04:58:25.019Z,1032.38
2019-01-04T04:59:25.012Z,1032.40
2019-01-04T05:01:17.399Z,1032.39
2019-01-04T05:02:17.403Z,1032.38
2019-01-04T05:04:09.344Z,1032.39
2019-01-04T05:05:09.327Z,1032.38
2019-01-04T05:07:01.234Z,1032.38
2019-01-04T05:08:01.249Z,1032.47
2019-01-04T05:09:53.171Z,1032.45
2019-01-04T05:10:53.162Z,1032.43
2019-01-04T05:12:45.070Z,1032.40
2019-01-04T05:13:45.075Z,1032.42
2019-01-04T05:15:37.011Z,1032.36
2019-01-04T05:16:36.997Z,1032.36
2019-01-04T05:18:29.392Z,1032.35
2019-01-04T05:19:29.396Z,1032.35
2019-01-04T05:21:21.342Z,1032.31
2019-01-04T05:22:21.311Z,1032.31
2019-01-04T05:24:13.242Z,1032.19
2019-01-04T05:25:13.228Z,1032.22
2019-01-04T05:27:05.130Z,1032.20
2019-01-04T05:28:05.131Z,1032.18
2019-01-04T05:29:57.063Z,1032.21
2019-01-04T05:30:57.038Z,1032.25
2019-01-04T05:32:48.947Z,1032.26
2019-01-04T05:33:48.950Z,1032.26
2019-01-04T05:35:40.891Z,1032.17
2019-01-04T05:36:40.877Z,1032.12
2019-01-04T05:38:32.776Z,1032.23
2019-01-04T05:39:32.784Z,1032.23
2019-01-04T05:41:24.710Z,1032.22
2019-01-04T05:42:24.699Z,1032.27
2019-01-04T05:44:16.605Z,1032.28
2019-01-04T05:45:16.614Z,1032.26
2019-01-04T05:47:09.030Z,1032.24
2019-01-04T05:48:09.018Z,1032.24
2019-01-04T05:50:01.473Z,1032.27
2019-01-04T05:51:01.450Z,1032.26
2019-01-04T05:52:53.847Z,1032.24
2019-01-04T05:53:53.853Z,1032.22
2019-01-04T05:55:45.785Z,1032.27
2019-01-04T05:56:45.766Z,1032.28
2019-01-04T05:57:45.781Z,1032.32
2019-01-04T05:58:45.791Z,1032.33
2019-01-04T05:59:45.801Z,1032.32
2019-01-04T06:00:45.817Z,1032.27
2019-01-04T06:01:45.830Z,1032.32
2019-01-04T06:02:45.841Z,1032.34
2019-01-04T06:03:45.859Z,1032.31
2019-01-04T06:04:45.866Z,1032.27
2019-01-04T06:05:45.878Z,1032.22
2019-01-04T06:06:45.884Z,1032.25
2019-01-04T06:07:45.917Z,1032.22
2019-01-04T06:08:45.917Z,1032.17
2019-01-04T06:09:45.921Z,1032.16
2019-01-04T06:10:45.936Z,1032.12
2019-01-04T06:11:45.950Z,1032.14
2019-01-04T06:12:45.959Z,1032.15
2019-01-04T06:13:45.977Z,1032.12
2019-01-04T06:14:45.984Z,1032.12
2019-01-04T06:15:45.991Z,1032.14
2019-01-04T06:16:46.016Z,1032.15
2019-01-04T06:17:46.017Z,1032.09
2019-01-04T06:18:46.028Z,1032.06
2019-01-04T06:19:46.041Z,1032.01
2019-01-04T06:20:46.054Z,1032.08
2019-01-04T06:21:46.064Z,1032.06
2019-01-04T06:22:46.080Z,1032.06
2019-01-04T06:23:46.092Z,1032.09
2019-01-04T06:24:46.106Z,1032.12
2019-01-04T06:25:46.111Z,1032.14
2019-01-04T06:26:46.124Z,1032.13
2019-01-04T06:27:46.139Z,1032.19
2019-01-04T06:28:46.151Z,1032.15
2019-01-04T06:29:46.163Z,1032.14
2019-01-04T06:30:46.178Z,1032.16
2019-01-04T06:31:46.196Z,1032.12
2019-01-04T06:32:46.205Z,1032.19
2019-01-04T06:33:46.209Z,1032.18
2019-01-04T06:34:46.256Z,1032.22
2019-01-04T06:35:46.234Z,1032.22
2019-01-04T06:36:46.247Z,1032.23
2019-01-04T06:37:46.254Z,1032.25
2019-01-04T06:38:46.269Z,1032.22
2019-01-04T06:39:46.285Z,1032.17
2019-01-04T06:40:46.329Z,1032.13
2019-01-04T06:41:46.310Z,1032.04
2019-01-04T06:42:46.318Z,1032.03
2019-01-04T06:43:46.331Z,1032.00
2019-01-04T06:44:46.341Z,1032.00
2019-01-04T06:45:46.352Z,1031.95
2019-01-04T06:46:46.379Z,1031.97
2019-01-04T06:47:46.378Z,1032.01
2019-01-04T06:48:46.391Z,1032.05
2019-01-04T06:49:46.399Z,1032.13
2019-01-04T06:50:46.413Z,1032.14
2019-01-04T06:51:46.432Z,1032.08
2019-01-04T06:52:46.437Z,1032.02
2019-01-04T06:53:46.444Z,1032.03
2019-01-04T06:54:46.460Z,1031.99
2019-01-04T06:55:46.477Z,1031.98
2019-01-04T06:56:46.488Z,1031.92
2019-01-04T06:57:46.495Z,1031.99
2019-01-04T06:58:46.504Z,1032.04
2019-01-04T06:59:46.521Z,1032.05
2019-01-04T07:00:46.538Z,1032.07
2019-01-04T07:01:46.551Z,1032.04
2019-01-04T07:02:46.552Z,1032.05
2019-01-04T07:03:46.566Z,1032.09
2019-01-04T07:04:46.578Z,1032.18
2019-01-04T07:05:46.592Z,1032.19
2019-01-04T07:06:46.603Z,1032.23
2019-01-04T07:07:46.617Z,1032.28
2019-01-04T07:08:46.629Z,1032.29
2019-01-04T07:09:46.650Z,1032.28
2019-01-04T07:10:46.650Z,1032.31
2019-01-04T07:11:46.981Z,1032.24
2019-01-04T07:12:46.673Z,1032.25
2019-01-04T07:13:46.682Z,1032.22
2019-01-04T07:14:46.698Z,1032.27
2019-01-04T07:15:46.712Z,1032.30
2019-01-04T07:16:46.720Z,1032.29
2019-01-04T07:17:47.300Z,1032.26
2019-01-04T07:18:46.749Z,1032.25
2019-01-04T07:19:46.758Z,1032.21
2019-01-04T07:20:46.767Z,1032.17
2019-01-04T07:21:46.778Z,1032.21
2019-01-04T07:22:46.795Z,1032.23
2019-01-04T07:23:46.805Z,1032.28
2019-01-04T07:24:46.831Z,1032.28
2019-01-04T07:25:46.828Z,1032.21
2019-01-04T07:26:46.845Z,1032.23
2019-01-04T07:27:46.859Z,1032.27
2019-01-04T07:28:46.864Z,1032.22
2019-01-04T07:29:46.874Z,1032.24
2019-01-04T07:30:46.884Z,1032.23
2019-01-04T07:31:46.898Z,1032.17
2019-01-04T07:32:46.913Z,1032.22
2019-01-04T07:33:46.926Z,1032.18
2019-01-04T07:34:46.939Z,1032.19
2019-01-04T07:35:46.949Z,1032.21
2019-01-04T07:36:46.960Z,1032.31
2019-01-04T07:37:46.968Z,1032.35
2019-01-04T07:38:46.987Z,1032.37
2019-01-04T07:39:46.995Z,1032.42
2019-01-04T07:40:47.008Z,1032.39
2019-01-04T07:41:47.018Z,1032.32
2019-01-04T07:42:47.030Z,1032.27
2019-01-04T07:43:47.048Z,1032.30
2019-01-04T07:44:47.054Z,1032.33
2019-01-04T07:45:47.065Z,1032.38
2019-01-04T07:46:47.081Z,1032.37
2019-01-04T07:47:47.091Z,1032.35
2019-01-04T07:48:47.102Z,1032.34
2019-01-04T07:49:47.117Z,1032.33
2019-01-04T07:50:47.126Z,1032.34
2019-01-04T07:51:47.141Z,1032.32
2019-01-04T07:52:47.152Z,1032.35
2019-01-04T07:53:47.955Z,1032.37
2019-01-04T07:54:47.178Z,1032.35
2019-01-04T07:55:47.186Z,1032.31
2019-01-04T07:56:47.199Z,1032.34
2019-01-04T07:57:47.214Z,1032.35
2019-01-04T07:58:47.223Z,1032.35
2019-01-04T07:59:47.237Z,1032.39
2019-01-04T08:00:47.247Z,1032.40
2019-01-04T08:01:47.257Z,1032.38
2019-01-04T08:02:47.275Z,1032.32
2019-01-04T08:03:47.286Z,1032.34
2019-01-04T08:04:47.296Z,1032.35
2019-01-04T08:05:47.312Z,1032.29
2019-01-04T08:06:47.322Z,1032.32
2019-01-04T08:07:47.332Z,1032.37
2019-01-04T08:08:47.343Z,1032.40
2019-01-04T08:09:47.353Z,1032.41
2019-01-04T08:10:47.368Z,1032.43
2019-01-04T08:11:47.383Z,1032.43
2019-01-04T08:12:47.391Z,1032.41
2019-01-04T08:13:47.405Z,1032.47
2019-01-04T08:14:48.736Z,1032.49
2019-01-04T08:15:47.430Z,1032.48
2019-01-04T08:16:47.443Z,1032.45
2019-01-04T08:17:47.451Z,1032.46
2019-01-04T08:18:47.464Z,1032.50
2019-01-04T08:19:47.479Z,1032.48
2019-01-04T08:20:47.489Z,1032.46
2019-01-04T08:21:47.506Z,1032.52
2019-01-04T08:22:47.511Z,1032.47
2019-01-04T08:23:47.541Z,1032.51
2019-01-04T08:24:47.534Z,1032.43
2019-01-04T08:25:47.557Z,1032.45
2019-01-04T08:26:47.563Z,1032.46
2019-01-04T08:27:47.572Z,1032.46
2019-01-04T08:28:47.609Z,1032.54
2019-01-04T08:29:47.599Z,1032.55
2019-01-04T08:30:47.612Z,1032.53
2019-01-04T08:31:47.623Z,1032.55
2019-01-04T08:32:47.632Z,1032.57
2019-01-04T08:33:47.647Z,1032.55
2019-01-04T08:34:47.661Z,1032.55
2019-01-04T08:35:47.672Z,1032.50
2019-01-04T08:36:47.686Z,1032.49
2019-01-04T08:37:47.693Z,1032.53
2019-01-04T08:38:47.709Z,1032.50
2019-01-04T08:39:47.725Z,1032.57
2019-01-04T08:40:47.733Z,1032.57
2019-01-04T08:41:47.745Z,1032.54
2019-01-04T08:42:47.761Z,1032.56
2019-01-04T08:43:47.772Z,1032.56
2019-01-04T08:44:47.782Z,1032.56
2019-01-04T08:45:47.792Z,1032.56
2019-01-04T08:46:47.805Z,1032.56
2019-01-04T08:47:47.821Z,1032.50
2019-01-04T08:48:47.832Z,1032.51
2019-01-04T08:49:47.842Z,1032.48
2019-01-04T08:50:47.856Z,1032.52
2019-01-04T08:51:47.865Z,1032.52
2019-01-04T08:52:47.881Z,1032.48
2019-01-04T08:53:47.895Z,1032.45
2019-01-04T08:54:47.905Z,1032.41
2019-01-04T08:55:47.922Z,1032.41
2019-01-04T08:56:47.960Z,1032.36
2019-01-04T08:57:47.946Z,1032.40
2019-01-04T08:58:47.958Z,1032.40
2019-01-04T08:59:47.966Z,1032.42
2019-01-04T09:00:47.987Z,1032.43
2019-01-04T09:01:47.996Z,1032.44
2019-01-04T09:02:48.010Z,1032.40
2019-01-04T09:03:48.018Z,1032.39
2019-01-04T09:04:48.029Z,1032.35
2019-01-04T09:05:48.052Z,1032.36
2019-01-04T09:06:48.077Z,1032.34
2019-01-04T09:07:48.068Z,1032.37
2019-01-04T09:08:48.077Z,1032.39
2019-01-04T09:09:48.092Z,1032.33
2019-01-04T09:10:48.104Z,1032.34
2019-01-04T09:11:48.116Z,1032.37
2019-01-04T09:12:48.126Z,1032.32
2019-01-04T09:13:48.146Z,1032.32
2019-01-04T09:14:48.159Z,1032.30
2019-01-04T09:15:48.166Z,1032.27
2019-01-04T09:16:48.180Z,1032.27
2019-01-04T09:17:48.192Z,1032.24
2019-01-04T09:18:48.205Z,1032.28
2019-01-04T09:19:48.212Z,1032.30
2019-01-04T09:20:48.225Z,1032.23
2019-01-04T09:21:48.240Z,1032.21
2019-01-04T09:22:48.263Z,1032.17
2019-01-04T09:23:48.266Z,1032.22
2019-01-04T09:24:48.279Z,1032.21
2019-01-04T09:25:48.306Z,1032.19
2019-01-04T09:26:48.316Z,1032.19
2019-01-04T09:27:48.319Z,1032.20
2019-01-04T09:28:48.328Z,1032.17
2019-01-04T09:29:48.340Z,1032.19
2019-01-04T09:30:48.349Z,1032.16
2019-01-04T09:31:48.365Z,1032.15
2019-01-04T09:32:48.379Z,1032.15
2019-01-04T09:33:48.394Z,1032.15
2019-01-04T09:34:48.403Z,1032.16
2019-01-04T09:35:48.413Z,1032.13
2019-01-04T09:36:48.429Z,1032.06
2019-01-04T09:37:48.440Z,1032.07
2019-01-04T09:38:48.452Z,1032.07
2019-01-04T09:39:48.463Z,1032.07
2019-01-04T09:40:48.477Z,1032.08
2019-01-04T09:41:48.489Z,1032.10
2019-01-04T09:42:48.505Z,1032.09
2019-01-04T09:43:48.519Z,1032.13
2019-01-04T09:44:48.530Z,1032.14
2019-01-04T09:45:48.537Z,1032.15
2019-01-04T09:46:48.557Z,1032.11
2019-01-04T09:47:48.574Z,1032.15
2019-01-04T09:48:48.574Z,1032.06
2019-01-04T09:49:48.591Z,1032.09
2019-01-04T09:50:48.605Z,1032.05
2019-01-04T09:51:48.619Z,1032.06
2019-01-04T09:52:48.628Z,1032.02
2019-01-04T09:53:48.639Z,1032.07
2019-01-04T09:54:48.651Z,1031.96
2019-01-04T09:55:48.671Z,1031.92
2019-01-04T09:56:48.676Z,1031.87
2019-01-04T09:57:48.689Z,1031.88
2019-01-04T09:58:48.703Z,1031.91
2019-01-04T09:59:48.724Z,1031.86
2019-01-04T10:00:48.738Z,1031.94
2019-01-04T10:01:48.744Z,1031.83
2019-01-04T10:02:48.757Z,1031.84
2019-01-04T10:03:48.772Z,1031.80
2019-01-04T10:04:48.782Z,1031.75
2019-01-04T10:05:48.802Z,1031.70
2019-01-04T10:06:48.804Z,1031.72
2019-01-04T10:07:48.821Z,1031.73
2019-01-04T10:08:48.833Z,1031.72
2019-01-04T10:09:48.849Z,1031.78
2019-01-04T10:10:48.859Z,1031.76
2019-01-04T10:11:48.895Z,1031.75
2019-01-04T10:12:48.876Z,1031.76
2019-01-04T10:13:48.895Z,1031.74
2019-01-04T10:14:48.908Z,1031.73
2019-01-04T10:15:48.918Z,1031.69
2019-01-04T10:16:48.942Z,1031.75
2019-01-04T10:17:48.947Z,1031.67
2019-01-04T10:18:48.955Z,1031.69
2019-01-04T10:19:48.971Z,1031.68
2019-01-04T10:20:48.991Z,1031.67
2019-01-04T10:21:48.995Z,1031.60
2019-01-04T10:22:49.010Z,1031.68
2019-01-04T10:23:49.024Z,1031.60
2019-01-04T10:24:49.033Z,1031.59
2019-01-04T10:25:49.047Z,1031.55
2019-01-04T10:26:49.059Z,1031.54
2019-01-04T10:27:49.074Z,1031.51
2019-01-04T10:28:49.090Z,1031.47
2019-01-04T10:29:49.095Z,1031.44
2019-01-04T10:30:49.114Z,1031.45
2019-01-04T10:31:49.128Z,1031.43
2019-01-04T10:32:49.141Z,1031.40
2019-01-04T10:33:49.148Z,1031.37
2019-01-04T10:34:49.165Z,1031.36
2019-01-04T10:35:49.177Z,1031.36
2019-01-04T10:36:49.189Z,1031.26
2019-01-04T10:37:49.200Z,1031.23
2019-01-04T10:38:49.215Z,1031.24
2019-01-04T10:39:49.228Z,1031.23
2019-01-04T10:40:49.271Z,1031.28
2019-01-04T10:41:49.258Z,1031.26
2019-01-04T10:42:49.274Z,1031.23
2019-01-04T10:43:49.282Z,1031.22
2019-01-04T10:44:49.291Z,1031.22
2019-01-04T10:45:49.303Z,1031.23
2019-01-04T10:46:49.319Z,1031.22
2019-01-04T10:47:49.328Z,1031.21
2019-01-04T10:48:49.343Z,1031.20
2019-01-04T10:49:49.363Z,1031.19
2019-01-04T10:50:49.369Z,1031.15
2019-01-04T10:51:49.381Z,1031.07
2019-01-04T10:52:49.395Z,1031.05
2019-01-04T10:53:49.408Z,1030.97
2019-01-04T10:54:49.420Z,1031.00
2019-01-04T10:55:49.438Z,1030.97
2019-01-04T10:56:49.445Z,1030.96
2019-01-04T10:57:49.459Z,1030.94
2019-01-04T10:58:49.474Z,1030.96
2019-01-04T10:59:49.485Z,1031.00
2019-01-04T11:00:49.522Z,1031.04
2019-01-04T11:01:49.514Z,1030.97
2019-01-04T11:02:49.523Z,1030.97
2019-01-04T11:03:49.936Z,1030.86
2019-01-04T11:04:49.554Z,1030.83
2019-01-04T11:05:49.565Z,1030.90
2019-01-04T11:06:49.575Z,1030.94
2019-01-04T11:07:49.589Z,1030.97
2019-01-04T11:08:49.613Z,1031.00
2019-01-04T11:09:49.615Z,1030.99
2019-01-04T11:10:49.634Z,1030.92
2019-01-04T11:11:49.649Z,1031.04
2019-01-04T11:12:49.653Z,1030.95
2019-01-04T11:13:49.673Z,1030.97
2019-01-04T11:14:49.679Z,1031.02
2019-01-04T11:15:49.692Z,1030.96
2019-01-04T11:16:49.704Z,1030.95
2019-01-04T11:17:49.718Z,1030.88
2019-01-04T11:18:49.733Z,1030.87
2019-01-04T11:19:49.742Z,1030.87
2019-01-04T11:20:49.758Z,1030.85
2019-01-04T11:21:49.770Z,1030.85
2019-01-04T11:22:49.783Z,1030.82
2019-01-04T11:23:49.799Z,1030.83
2019-01-04T11:24:49.809Z,1030.77
2019-01-04T11:25:49.821Z,1030.70
2019-01-04T11:26:49.836Z,1030.71
2019-01-04T11:27:49.850Z,1030.74
2019-01-04T11:28:49.859Z,1030.67
2019-01-04T11:29:49.871Z,1030.69
2019-01-04T11:30:49.901Z,1030.68
2019-01-04T11:31:49.899Z,1030.75
2019-01-04T11:32:49.916Z,1030.72
2019-01-04T11:33:49.931Z,1030.71
2019-01-04T11:34:49.938Z,1030.76
2019-01-04T11:35:49.954Z,1030.74
2019-01-04T11:36:49.962Z,1030.75
2019-01-04T11:37:49.976Z,1030.72
2019-01-04T11:38:49.996Z,1030.71
2019-01-04T11:39:49.999Z,1030.71
2019-01-04T11:40:50.013Z,1030.69
2019-01-04T11:41:50.034Z,1030.71
2019-01-04T11:42:50.042Z,1030.70
2019-01-04T11:43:50.057Z,1030.70
2019-01-04T11:44:50.063Z,1030.67
2019-01-04T11:45:50.077Z,1030.63
2019-01-04T11:46:50.091Z,1030.55
2019-01-04T11:47:50.104Z,1030.50
2019-01-04T11:48:50.115Z,1030.60
2019-01-04T11:49:50.129Z,1030.61
2019-01-04T11:50:50.143Z,1030.58
2019-01-04T11:51:50.159Z,1030.57
2019-01-04T11:52:50.166Z,1030.57
2019-01-04T11:53:50.187Z,1030.57
2019-01-04T11:54:50.191Z,1030.52
2019-01-04T11:55:50.206Z,1030.52
2019-01-04T11:56:50.218Z,1030.51
2019-01-04T11:57:50.234Z,1030.46
2019-01-04T11:58:50.244Z,1030.49
2019-01-04T11:59:50.270Z,1030.48
2019-01-04T12:00:50.268Z,1030.49
2019-01-04T12:01:50.280Z,1030.49
2019-01-04T12:02:50.295Z,1030.51
2019-01-04T12:03:50.313Z,1030.57
2019-01-04T12:04:50.319Z,1030.60
2019-01-04T12:05:50.335Z,1030.63
2019-01-04T12:06:50.350Z,1030.62
2019-01-04T12:07:50.359Z,1030.66
2019-01-04T12:08:50.372Z,1030.65
2019-01-04T12:09:50.382Z,1030.64
2019-01-04T12:10:50.395Z,1030.57
2019-01-04T12:11:50.411Z,1030.55
2019-01-04T12:12:50.419Z,1030.55
2019-01-04T12:13:50.434Z,1030.61
2019-01-04T12:14:50.467Z,1030.55
2019-01-04T12:15:50.464Z,1030.57
2019-01-04T12:16:50.478Z,1030.55
2019-01-04T12:17:50.485Z,1030.55
2019-01-04T12:18:50.522Z,1030.52
2019-01-04T12:19:50.520Z,1030.45
2019-01-04T12:20:50.526Z,1030.41
2019-01-04T12:21:50.535Z,1030.39
2019-01-04T12:22:50.549Z,1030.32
2019-01-04T12:23:50.562Z,1030.30
2019-01-04T12:24:50.570Z,1030.19
2019-01-04T12:25:50.585Z,1030.16
2019-01-04T12:26:50.601Z,1030.20
2019-01-04T12:27:50.614Z,1030.17
2019-01-04T12:28:50.630Z,1030.14
2019-01-04T12:29:50.636Z,1030.16
2019-01-04T12:30:50.645Z,1030.15
2019-01-04T12:31:50.664Z,1030.12
2019-01-04T12:32:50.674Z,1030.10
2019-01-04T12:33:50.707Z,1030.07
2019-01-04T12:34:50.701Z,1030.02
2019-01-04T12:35:50.714Z,1029.97
2019-01-04T12:36:50.725Z,1029.95
2019-01-04T12:37:50.734Z,1029.97
2019-01-04T12:38:50.758Z,1029.98
2019-01-04T12:39:50.763Z,1030.04
2019-01-04T12:40:50.774Z,1030.02
2019-01-04T12:41:50.795Z,1030.05
2019-01-04T12:42:50.803Z,1030.05
2019-01-04T12:43:50.817Z,1030.05
2019-01-04T12:44:50.820Z,1030.01
2019-01-04T12:45:50.837Z,1030.09
2019-01-04T12:46:50.851Z,1030.12
2019-01-04T12:47:50.862Z,1030.16
2019-01-04T12:48:50.876Z,1030.22
2019-01-04T12:49:50.890Z,1030.25
2019-01-04T12:50:50.950Z,1030.23
2019-01-04T12:51:50.916Z,1030.20
2019-01-04T12:52:51.319Z,1030.16
2019-01-04T12:53:50.935Z,1030.14
2019-01-04T12:54:50.950Z,1030.21
2019-01-04T12:55:50.964Z,1030.12
2019-01-04T12:56:50.981Z,1030.16
2019-01-04T12:57:50.984Z,1030.13
2019-01-04T12:58:50.999Z,1030.10
2019-01-04T12:59:51.014Z,1029.98
2019-01-04T13:00:51.033Z,1029.94
2019-01-04T13:01:51.038Z,1029.90
2019-01-04T13:02:51.047Z,1029.94
2019-01-04T13:03:51.061Z,1029.98
2019-01-04T13:04:51.071Z,1030.04
2019-01-04T13:05:51.090Z,1030.08
2019-01-04T13:06:51.104Z,1030.07
2019-01-04T13:07:51.109Z,1030.06
2019-01-04T13:08:51.125Z,1030.06
2019-01-04T13:09:51.135Z,1030.01
2019-01-04T13:10:51.151Z,1029.96
2019-01-04T13:11:51.159Z,1029.95
2019-01-04T13:12:51.177Z,1029.91
2019-01-04T13:13:51.184Z,1029.89
2019-01-04T13:14:51.204Z,1029.87
2019-01-04T13:15:51.224Z,1029.84
2019-01-04T13:16:51.218Z,1029.87
2019-01-04T13:17:51.237Z,1029.85
2019-01-04T13:18:51.245Z,1029.91
2019-01-04T13:19:51.262Z,1029.94
2019-01-04T13:20:51.275Z,1029.99
2019-01-04T13:21:51.311Z,1029.97
2019-01-04T13:22:51.301Z,1029.92
2019-01-04T13:23:51.310Z,1029.91
2019-01-04T13:24:51.320Z,1029.97
2019-01-04T13:25:51.335Z,1029.96
2019-01-04T13:26:51.349Z,1029.89
2019-01-04T13:27:51.366Z,1029.87
2019-01-04T13:28:51.372Z,1029.87
2019-01-04T13:29:51.382Z,1029.89
2019-01-04T13:30:51.395Z,1029.89
2019-01-04T13:31:51.441Z,1029.87
2019-01-04T13:32:51.419Z,1029.92
2019-01-04T13:33:51.440Z,1029.92
2019-01-04T13:34:51.449Z,1029.90
2019-01-04T13:35:51.455Z,1029.86
2019-01-04T13:36:51.469Z,1029.86
2019-01-04T13:37:51.486Z,1029.81
2019-01-04T13:38:51.492Z,1029.84
2019-01-04T13:39:51.511Z,1029.79
2019-01-04T13:40:51.525Z,1029.79
2019-01-04T13:41:51.533Z,1029.77
2019-01-04T13:42:51.552Z,1029.75
2019-01-04T13:43:51.559Z,1029.67
2019-01-04T13:44:51.572Z,1029.66
2019-01-04T13:45:51.587Z,1029.64
2019-01-04T13:46:51.593Z,1029.69
2019-01-04T13:47:51.610Z,1029.69
2019-01-04T13:48:51.613Z,1029.73
2019-01-04T13:49:51.631Z,1029.74
2019-01-04T13:50:51.641Z,1029.85
2019-01-04T13:51:51.652Z,1029.78
2019-01-04T13:52:51.667Z,1029.77
2019-01-04T13:53:51.679Z,1029.75
2019-01-04T13:54:51.691Z,1029.76
2019-01-04T13:55:51.704Z,1029.77
2019-01-04T13:56:51.716Z,1029.74
2019-01-04T13:57:51.728Z,1029.68
2019-01-04T13:58:51.741Z,1029.71
2019-01-04T13:59:51.753Z,1029.68
2019-01-04T14:00:51.764Z,1029.66
2019-01-04T14:01:51.778Z,1029.65
2019-01-04T14:02:51.791Z,1029.61
2019-01-04T14:03:51.804Z,1029.65
2019-01-04T14:04:51.817Z,1029.71
2019-01-04T14:05:51.844Z,1029.67